Time;durP1;ratioP1;P1;durP2;ratioP2;P2;SDS_P1;SDS_P2;PMS_P1;PMS_P2;Temp;Humidity;BMP_temperature;BMP_pressure;BME280_temperature;BME280_humidity;BME280_pressure;Samples;Min_cycle;Max_cycle;Signal;HPM_P1;HPM_P2
2024/01/29 00:00:15;;;;;;;10.77;5.50;;;4.50;99.00;;;4.41;62.31;96549.88;5070062;28;20842;-58
2024/01/29 00:02:43;;;;;;;12.00;5.00;;;4.60;99.00;;;4.41;62.33;96539.44;5069666;28;20586;-60
2024/01/29 00:05:11;;;;;;;7.10;5.60;;;4.60;99.00;;;4.40;62.27;96540.34;5069503;28;20451;-58
2024/01/29 00:07:38;;;;;;;9.90;5.30;;;4.60;98.90;;;4.41;62.40;96549.88;5069576;28;20959;-62
2024/01/29 00:10:08;;;;;;;10.10;6.57;;;4.60;99.00;;;4.39;62.65;96543.88;5069795;28;20828;-58
2024/01/29 00:12:36;;;;;;;10.63;5.93;;;4.60;99.10;;;4.38;62.69;96555.19;5069735;28;20474;-63
2024/01/29 00:15:03;;;;;;;10.47;5.97;;;4.60;99.10;;;4.38;62.68;96560.41;5069529;28;20451;-62
2024/01/29 00:17:30;;;;;;;8.00;5.50;;;4.60;99.20;;;4.38;62.97;96556.03;5069801;28;20450;-58
2024/01/29 00:19:58;;;;;;;8.80;5.20;;;4.50;99.30;;;4.37;62.81;96551.75;5069712;28;20458;-58
2024/01/29 00:22:25;;;;;;;6.27;5.70;;;4.50;99.30;;;4.38;62.63;96560.41;5069526;28;20475;-63
2024/01/29 00:24:52;;;;;;;8.17;6.43;;;4.60;99.10;;;4.40;62.81;96566.38;5070060;28;20902;-58
2024/01/29 00:27:21;;;;;;;7.40;5.17;;;4.60;99.10;;;4.41;62.52;96568.09;5069632;28;20493;-57
2024/01/29 00:29:48;;;;;;;11.97;5.13;;;4.60;99.10;;;4.41;62.55;96563.72;5070002;28;20455;-62
2024/01/29 00:32:16;;;;;;;13.83;6.60;;;4.60;99.10;;;4.42;62.86;96578.47;5070471;28;20463;-63
2024/01/29 00:34:43;;;;;;;12.13;6.50;;;4.60;99.30;;;4.45;62.53;96569.69;5069018;28;20447;-58
2024/01/29 00:37:11;;;;;;;8.20;6.13;;;4.60;99.10;;;4.46;62.89;96571.38;5069002;28;20509;-58
2024/01/29 00:39:38;;;;;;;11.13;5.20;;;4.60;99.20;;;4.47;62.61;96579.13;5069316;28;20455;-59
2024/01/29 00:42:05;;;;;;;12.77;5.87;;;4.70;99.20;;;4.48;62.56;96574.78;5069313;28;20475;-58
2024/01/29 00:44:34;;;;;;;8.33;5.20;;;4.70;99.20;;;4.49;62.62;96579.06;5068968;28;21047;-59
2024/01/29 00:47:02;;;;;;;12.00;6.23;;;4.70;99.20;;;4.49;62.78;96573.84;5069389;28;20474;-58
2024/01/29 00:49:31;;;;;;;8.93;5.50;;;4.70;99.20;;;4.48;62.59;96575.63;5068895;28;20494;-58
2024/01/29 00:51:58;;;;;;;8.93;6.37;;;4.70;99.10;;;4.50;62.56;96578.16;5068783;28;20483;-63
2024/01/29 00:54:25;;;;;;;10.97;6.10;;;4.70;99.10;;;4.52;62.64;96576.34;5068833;28;20509;-57
2024/01/29 00:56:53;;;;;;;12.73;5.67;;;4.70;99.50;;;4.51;62.49;96585.06;5069287;28;20522;-63
2024/01/29 00:59:20;;;;;;;7.23;6.30;;;4.70;99.10;;;4.52;62.53;96584.16;5068594;28;20877;-58
2024/01/29 01:01:49;;;;;;;9.63;6.13;;;4.70;99.10;;;4.51;62.37;96579.88;5068695;28;20463;-63
2024/01/29 01:04:17;;;;;;;9.47;6.40;;;4.70;99.00;;;4.51;62.46;96585.06;5068932;28;20465;-58
2024/01/29 01:06:45;;;;;;;9.13;6.00;;;4.70;98.90;;;4.50;62.66;96578.16;5068644;28;20551;-58
2024/01/29 01:09:13;;;;;;;14.17;6.53;;;4.70;99.00;;;4.48;62.41;96583.44;5068759;28;20486;-64
2024/01/29 01:11:42;;;;;;;9.13;5.20;;;4.70;99.00;;;4.49;62.30;96581.66;5068905;28;20587;-57
2024/01/29 01:14:09;;;;;;;7.93;5.40;;;4.70;98.90;;;4.49;62.41;96573.84;5068962;28;20447;-56
2024/01/29 01:16:36;;;;;;;10.93;6.23;;;4.70;99.00;;;4.51;62.17;96586.81;5068602;28;20494;-58
2024/01/29 01:19:05;;;;;;;7.00;4.80;;;4.70;99.00;;;4.51;62.56;96587.69;5068937;28;20524;-58
2024/01/29 01:21:32;;;;;;;11.07;5.10;;;4.70;99.00;;;4.51;62.87;96584.22;5068598;28;20462;-63
2024/01/29 01:24:00;;;;;;;6.77;6.03;;;4.70;99.20;;;4.50;62.75;96578.16;5068917;28;20455;-58
2024/01/29 01:26:27;;;;;;;5.97;4.93;;;4.70;99.10;;;4.51;62.42;96579.00;5068692;28;20474;-58
2024/01/29 01:28:54;;;;;;;6.37;5.10;;;4.70;99.10;;;4.49;62.21;96576.44;5068822;28;20915;-58
2024/01/29 01:31:22;;;;;;;9.20;7.10;;;4.70;99.00;;;4.48;62.31;96569.56;5068864;28;20528;-58
2024/01/29 01:33:49;;;;;;;10.67;6.50;;;4.70;99.00;;;4.45;62.26;96572.28;5068309;28;20504;-58
2024/01/29 01:36:18;;;;;;;16.93;6.13;;;4.60;98.90;;;4.42;62.11;96568.03;5068426;28;20491;-58
2024/01/29 01:38:45;;;;;;;5.57;5.00;;;4.60;98.90;;;4.41;62.72;96562.88;5068492;28;20451;-57
2024/01/29 01:41:12;;;;;;;6.60;6.00;;;4.60;99.10;;;4.39;62.18;96562.09;5068451;28;20864;-63
2024/01/29 01:43:40;;;;;;;7.67;5.50;;;4.60;99.20;;;4.38;62.38;96568.22;5068775;28;20556;-58
2024/01/29 01:46:20;;;;;;;19.03;5.97;;;4.60;98.90;;;4.37;62.39;96566.50;5068353;28;20467;-64
2024/01/29 01:48:47;;;;;;;7.23;5.33;;;4.50;98.90;;;4.34;62.79;96562.28;5068392;28;20475;-63
2024/01/29 01:51:14;;;;;;;8.27;6.13;;;4.50;99.20;;;4.34;62.57;96564.03;5068267;28;20505;-62
2024/01/29 01:53:43;;;;;;;6.10;5.50;;;4.50;99.10;;;4.32;62.55;96564.09;5068237;28;20482;-57
2024/01/29 01:56:10;;;;;;;9.70;5.40;;;4.50;99.30;;;4.30;62.71;96556.34;5068237;28;20557;-63
2024/01/29 01:58:40;;;;;;;8.90;5.67;;;4.50;99.30;;;4.26;62.49;96557.38;5068767;28;20500;-58
2024/01/29 02:01:07;;;;;;;8.37;5.67;;;4.50;99.00;;;4.25;62.50;96567.84;5064458;28;20486;-57
2024/01/29 02:03:34;;;;;;;5.40;4.97;;;4.40;99.00;;;4.22;62.33;96563.59;5064491;28;20529;-63
2024/01/29 02:06:02;;;;;;;6.83;5.10;;;4.40;99.00;;;4.21;62.69;96561.06;5068542;28;20478;-61
2024/01/29 02:08:29;;;;;;;10.73;5.67;;;4.40;99.10;;;4.20;62.75;96560.22;5068650;28;20459;-63
2024/01/29 02:10:58;;;;;;;6.33;5.40;;;4.40;99.20;;;4.18;62.68;96567.22;5076100;28;20466;-63
2024/01/29 02:13:25;;;;;;;8.00;5.93;;;4.40;99.10;;;4.18;62.76;96567.22;5074363;28;20523;-57
2024/01/29 02:15:52;;;;;;;6.70;5.30;;;4.40;99.10;;;4.18;62.99;96561.19;5072012;28;20481;-63
2024/01/29 02:18:20;;;;;;;15.10;6.00;;;4.40;99.30;;;4.17;63.10;96568.16;5071866;28;20438;-56
2024/01/29 02:20:47;;;;;;;7.60;5.27;;;4.40;99.50;;;4.19;62.94;96566.31;5072024;28;20510;-56
2024/01/29 02:23:16;;;;;;;12.73;5.93;;;4.40;99.40;;;4.20;63.06;96564.56;5071525;28;20458;-58
2024/01/29 02:25:43;;;;;;;8.20;6.37;;;4.40;99.40;;;4.21;62.71;96567.09;5071954;28;20463;-63
2024/01/29 02:28:10;;;;;;;7.40;5.50;;;4.40;99.30;;;4.22;62.63;96568.81;5071602;28;20451;-61
2024/01/29 02:30:38;;;;;;;12.03;6.50;;;4.40;99.20;;;4.23;62.87;96570.53;5071643;28;20533;-58
2024/01/29 02:33:05;;;;;;;8.93;6.17;;;4.40;99.30;;;4.24;63.04;96569.59;5071759;28;20454;-58
2024/01/29 02:35:32;;;;;;;9.70;6.00;;;4.50;99.50;;;4.25;62.93;96568.69;5071214;28;21133;-57
2024/01/29 02:38:00;;;;;;;7.00;5.50;;;4.40;99.40;;;4.26;62.43;96569.53;5071936;28;20845;-58
2024/01/29 02:40:29;;;;;;;9.43;5.87;;;4.50;99.30;;;4.26;62.76;96570.41;5071600;28;20467;-63
2024/01/29 02:42:56;;;;;;;8.23;5.10;;;4.40;99.50;;;4.26;63.12;96575.63;5071661;28;20458;-62
2024/01/29 02:45:23;;;;;;;7.77;6.00;;;4.50;99.40;;;4.25;62.95;96579.13;5071476;28;20482;-58
2024/01/29 02:47:50;;;;;;;9.53;6.00;;;4.50;99.40;;;4.26;62.79;96580.81;5071201;28;20447;-57
2024/01/29 02:50:18;;;;;;;15.90;6.00;;;4.50;99.40;;;4.26;62.64;96583.44;5071192;28;20513;-58
2024/01/29 02:52:45;;;;;;;9.63;6.40;;;4.50;99.40;;;4.27;62.97;96581.66;5070927;28;21173;-57
2024/01/29 02:55:13;;;;;;;7.63;5.37;;;4.50;99.50;;;4.27;63.01;96586.88;5070746;28;20443;-63
2024/01/29 02:57:41;;;;;;;11.33;5.70;;;4.50;99.40;;;4.29;62.70;96585.91;5071125;28;20517;-57
2024/01/29 03:00:10;;;;;;;8.30;5.97;;;4.50;99.40;;;4.29;62.74;96585.91;5070929;28;20439;-57
2024/01/29 03:02:37;;;;;;;14.40;6.63;;;4.50;99.40;;;4.31;62.90;96584.09;5071199;28;20540;-63
2024/01/29 03:05:07;;;;;;;8.97;6.63;;;4.50;99.40;;;4.35;63.01;96583.97;5071054;28;20616;-63
2024/01/29 03:07:34;;;;;;;6.33;5.73;;;4.50;99.60;;;4.35;63.16;96576.16;5071062;28;20451;-63
2024/01/29 03:10:01;;;;;;;12.43;5.40;;;4.50;99.50;;;4.37;62.71;96582.13;5070810;28;20463;-57
2024/01/29 03:12:28;;;;;;;11.13;5.00;;;4.60;99.50;;;4.38;62.80;96579.47;5070826;28;20451;-58
2024/01/29 03:14:57;;;;;;;7.57;5.57;;;4.60;99.40;;;4.38;62.87;96571.66;5070708;28;20516;-64
2024/01/29 03:17:24;;;;;;;7.30;6.20;;;4.60;99.20;;;4.39;62.94;96573.38;5070385;28;20544;-56
2024/01/29 03:19:51;;;;;;;14.93;6.30;;;4.60;99.30;;;4.40;62.87;96576.81;5070606;28;20447;-59
2024/01/29 03:22:19;;;;;;;10.97;6.30;;;4.60;99.30;;;4.39;62.85;96575.97;5069789;28;20532;-63
2024/01/29 03:24:46;;;;;;;9.70;7.20;;;4.60;99.40;;;4.40;62.96;96572.47;5070388;28;20946;-63
2024/01/29 03:27:13;;;;;;;7.17;6.30;;;4.60;99.30;;;4.41;62.84;96575.91;5070123;28;20996;-62
2024/01/29 03:29:41;;;;;;;8.47;6.63;;;4.60;99.30;;;4.41;62.39;96578.53;5070650;28;20455;-63
2024/01/29 03:32:10;;;;;;;11.87;5.77;;;4.60;99.10;;;4.43;62.92;96567.13;5070242;28;21142;-64
2024/01/29 03:34:41;;;;;;;7.07;5.73;;;4.60;99.30;;;4.44;62.74;96575.78;5070644;28;20447;-62
2024/01/29 03:37:08;;;;;;;7.60;6.10;;;4.60;99.40;;;4.44;62.83;96589.66;5070852;28;20964;-63
2024/01/29 03:39:36;;;;;;;13.73;6.20;;;4.60;99.40;;;4.44;62.47;96573.19;5070371;28;20462;-58
2024/01/29 03:42:03;;;;;;;8.03;6.43;;;4.60;99.10;;;4.45;62.25;96580.09;5070899;28;20475;-62
2024/01/29 03:44:30;;;;;;;10.20;6.23;;;4.60;99.10;;;4.45;62.35;96582.72;5070822;28;20447;-57
2024/01/29 03:46:58;;;;;;;8.37;5.73;;;4.70;99.10;;;4.45;62.38;96585.31;5070717;28;20482;-57
2024/01/29 03:49:26;;;;;;;8.50;6.10;;;4.60;99.10;;;4.45;62.71;96582.72;5070985;28;20466;-63
2024/01/29 03:51:54;;;;;;;10.20;5.50;;;4.60;99.10;;;4.46;62.21;96584.38;5070601;28;20486;-58
2024/01/29 03:54:21;;;;;;;7.73;6.07;;;4.60;99.10;;;4.45;62.54;96577.50;5070613;28;20455;-63
2024/01/29 03:56:48;;;;;;;7.60;6.03;;;4.60;99.10;;;4.45;62.49;96574.91;5070518;28;20495;-63
2024/01/29 03:59:15;;;;;;;8.73;6.13;;;4.60;99.10;;;4.44;62.73;96565.38;5070407;28;20451;-63
2024/01/29 04:01:43;;;;;;;9.97;6.80;;;4.60;99.10;;;4.43;61.91;96566.28;5070193;28;20471;-57
2024/01/29 04:04:11;;;;;;;9.77;6.47;;;4.60;99.00;;;4.41;62.49;96562.88;5069816;28;20513;-63
2024/01/29 04:06:40;;;;;;;9.40;6.57;;;4.60;99.10;;;4.40;62.85;96566.38;5069152;28;20520;-63
2024/01/29 04:09:09;;;;;;;9.87;7.10;;;4.60;99.10;;;4.40;62.51;96566.38;5070269;28;20458;-63
2024/01/29 04:11:36;;;;;;;10.90;6.63;;;4.60;99.00;;;4.39;62.49;96570.75;5070196;28;20475;-63
2024/01/29 04:14:03;;;;;;;9.30;6.30;;;4.60;99.00;;;4.39;62.64;96567.31;5069810;28;20449;-63
2024/01/29 04:16:31;;;;;;;11.93;7.53;;;4.60;99.10;;;4.37;62.32;96571.72;5069665;28;21022;-58
2024/01/29 04:18:58;;;;;;;11.40;6.77;;;4.60;98.90;;;4.36;62.39;96573.50;5069901;28;20455;-62
2024/01/29 04:21:26;;;;;;;10.90;7.50;;;4.60;99.00;;;4.33;62.34;96576.22;5069395;28;20852;-59
2024/01/29 04:23:55;;;;;;;10.00;7.30;;;4.50;99.00;;;4.33;62.15;96586.63;5069960;28;20447;-58
2024/01/29 04:26:22;;;;;;;11.30;6.77;;;4.50;98.90;;;4.33;62.41;96581.41;5069591;28;21026;-58
2024/01/29 04:28:49;;;;;;;12.93;7.33;;;4.50;99.10;;;4.31;62.44;96584.09;5069569;28;20477;-63
2024/01/29 04:31:16;;;;;;;12.70;6.73;;;4.50;98.90;;;4.30;62.75;96582.38;5068613;28;20536;-57
2024/01/29 04:33:44;;;;;;;7.27;5.87;;;4.50;99.10;;;4.31;62.57;96581.47;5068652;28;20455;-58
2024/01/29 04:36:15;;;;;;;9.30;6.83;;;4.50;99.20;;;4.34;62.46;96592.69;5069035;28;20489;-57
2024/01/29 04:38:43;;;;;;;8.40;6.37;;;4.50;99.10;;;4.33;62.62;96596.22;5069460;28;20534;-57
2024/01/29 04:41:19;;;;;;;12.20;7.27;;;4.50;99.20;;;4.31;62.49;96599.72;5069256;28;21053;-65
2024/01/29 04:43:47;;;;;;;8.40;6.77;;;4.50;99.20;;;4.30;62.63;96599.78;5065987;28;20447;-64
2024/01/29 04:46:13;;;;;;;10.83;7.20;;;4.50;99.10;;;4.30;62.36;96603.22;5069331;28;20532;-56
2024/01/29 04:48:41;;;;;;;14.20;8.10;;;4.50;99.10;;;4.30;62.61;96602.38;5069150;28;20457;-62
2024/01/29 04:51:08;;;;;;;9.17;7.00;;;4.50;99.20;;;4.30;62.65;96603.22;5069251;28;20497;-64
2024/01/29 04:53:35;;;;;;;11.70;7.17;;;4.50;99.40;;;4.32;62.71;96603.16;5069134;28;20459;-64
2024/01/29 04:56:03;;;;;;;12.13;7.40;;;4.50;99.70;;;4.34;62.37;96616.13;5069386;28;20474;-63
2024/01/29 04:58:32;;;;;;;15.13;8.57;;;4.50;99.10;;;4.34;62.40;96613.53;5065679;28;20534;-64
2024/01/29 05:00:59;;;;;;;15.03;8.63;;;4.50;99.10;;;4.37;62.46;96619.47;5069072;28;20463;-63
2024/01/29 05:03:27;;;;;;;10.00;8.07;;;4.60;99.10;;;4.37;62.14;96623.81;5068373;28;20951;-57
2024/01/29 05:05:54;;;;;;;10.37;8.00;;;4.60;99.00;;;4.35;62.37;96626.47;5069853;28;20470;-65
2024/01/29 05:08:22;;;;;;;12.33;7.53;;;4.60;99.00;;;4.36;62.98;96630.78;5069431;28;20810;-63
2024/01/29 05:10:49;;;;;;;11.47;8.10;;;4.60;99.20;;;4.38;62.68;96634.19;5065339;28;20478;-63
2024/01/29 05:13:17;;;;;;;10.33;7.40;;;4.60;99.30;;;4.38;61.91;96634.19;5065419;28;20451;-58
2024/01/29 05:15:45;;;;;;;13.10;7.97;;;4.60;99.00;;;4.37;62.19;96634.25;5065078;28;20470;-63
2024/01/29 05:18:13;;;;;;;8.83;7.93;;;4.60;99.00;;;4.37;62.52;96642.06;5065027;28;20498;-63
2024/01/29 05:20:40;;;;;;;13.60;8.10;;;4.60;99.00;;;4.38;62.89;96642.00;5065282;28;20899;-58
2024/01/29 05:23:08;;;;;;;11.57;7.90;;;4.60;99.30;;;4.40;62.26;96636.72;5065075;28;20450;-63
2024/01/29 05:25:35;;;;;;;16.03;8.57;;;4.60;99.20;;;4.42;62.53;96637.53;5065569;28;20462;-57
2024/01/29 05:28:02;;;;;;;12.70;8.63;;;4.60;99.10;;;4.45;62.57;96642.63;5065356;28;20446;-58
2024/01/29 05:30:30;;;;;;;13.03;8.17;;;4.60;99.10;;;4.48;62.54;96645.13;5069004;28;21027;-56
2024/01/29 05:32:59;;;;;;;22.70;8.20;;;4.60;99.10;;;4.52;62.20;96645.84;5062194;28;20451;-63
2024/01/29 05:35:26;;;;;;;10.90;7.47;;;4.70;99.00;;;4.52;62.17;96644.06;5063820;28;21182;-63
2024/01/29 05:37:54;;;;;;;26.90;15.30;;;4.70;98.90;;;4.51;61.90;96652.81;5063385;28;21103;-62
2024/01/29 05:40:21;;;;;;;34.30;16.57;;;4.70;98.80;;;4.48;62.21;96653.78;5062961;28;20463;-64
2024/01/29 05:42:52;;;;;;;33.97;17.27;;;4.70;98.80;;;4.48;61.94;96653.78;5062069;28;20455;-62
2024/01/29 05:45:20;;;;;;;32.47;15.67;;;4.70;98.80;;;4.45;61.84;96658.25;5066718;28;20447;-65
2024/01/29 05:47:47;;;;;;;23.93;14.03;;;4.70;98.50;;;4.40;61.73;96660.19;5069661;28;20443;-62
2024/01/29 05:50:16;;;;;;;32.30;15.87;;;4.60;98.70;;;4.38;62.27;96662.00;5072246;28;20480;-64
2024/01/29 05:52:44;;;;;;;28.50;15.77;;;4.60;98.90;;;4.34;62.86;96658.66;5071673;28;20455;-63
2024/01/29 05:55:11;;;;;;;28.27;15.90;;;4.60;99.10;;;4.37;62.42;96660.28;5071583;28;20832;-58
2024/01/29 05:57:39;;;;;;;24.83;13.30;;;4.60;98.90;;;4.33;62.03;96662.16;5071294;28;20494;-63
2024/01/29 06:00:10;;;;;;;31.73;15.93;;;4.50;98.80;;;4.30;62.46;96659.69;5072222;28;20608;-62
2024/01/29 06:02:42;;;;;;;29.23;12.90;;;4.50;99.00;;;4.28;62.80;96664.94;5072007;28;20431;-56
2024/01/29 06:05:11;;;;;;;26.30;13.33;;;4.50;99.50;;;4.29;62.91;96655.38;5072363;28;20434;-57
2024/01/29 06:07:40;;;;;;;35.83;16.63;;;4.50;99.80;;;4.26;62.18;96658.94;5072278;28;20970;-57
2024/01/29 06:10:09;;;;;;;31.77;13.00;;;4.50;99.20;;;4.22;62.87;96659.97;5072381;28;21020;-63
2024/01/29 06:12:37;;;;;;;24.20;12.50;;;4.50;99.40;;;4.17;63.00;96664.50;5072330;28;20458;-63
2024/01/29 06:15:05;;;;;;;21.93;12.30;;;4.40;99.50;;;4.14;63.49;96662.00;5072279;28;20520;-58
2024/01/29 06:17:33;;;;;;;18.77;11.90;;;4.30;99.90;;;4.12;63.43;96671.59;5071967;28;21249;-63
2024/01/29 06:20:03;;;;;;;18.20;12.30;;;4.30;99.90;;;4.14;63.23;96669.81;5072231;28;20481;-63
2024/01/29 06:22:30;;;;;;;23.60;12.60;;;4.30;99.90;;;4.20;63.30;96680.00;5072445;28;20442;-58
2024/01/29 06:24:59;;;;;;;20.63;12.10;;;4.30;99.90;;;4.23;63.55;96671.22;5072191;28;20509;-63
2024/01/29 06:27:26;;;;;;;19.20;11.50;;;4.40;99.90;;;4.29;64.09;96678.81;5071531;28;20482;-62
2024/01/29 06:29:53;;;;;;;15.37;10.20;;;4.50;99.90;;;4.30;63.49;96676.16;5071905;28;20478;-63
2024/01/29 06:32:21;;;;;;;17.47;10.00;;;4.50;99.90;;;4.30;63.34;96676.16;5071419;28;20470;-57
2024/01/29 06:34:49;;;;;;;16.37;10.00;;;4.50;99.90;;;4.28;63.02;96677.97;5071455;28;20607;-58
2024/01/29 06:37:16;;;;;;;15.40;11.00;;;4.50;99.80;;;4.27;63.17;96681.47;5072098;28;20580;-58
2024/01/29 06:39:44;;;;;;;16.50;11.30;;;4.50;99.90;;;4.25;63.86;96683.28;5072155;28;20494;-64
2024/01/29 06:42:12;;;;;;;18.53;10.80;;;4.50;99.90;;;4.26;63.64;96685.00;5073054;28;20481;-58
2024/01/29 06:44:41;;;;;;;22.90;12.33;;;4.50;99.90;;;4.29;63.79;96687.50;5071902;28;20508;-58
2024/01/29 06:47:08;;;;;;;17.10;11.20;;;4.50;99.90;;;4.33;63.65;96696.03;5071856;28;20472;-63
2024/01/29 06:49:36;;;;;;;18.50;11.83;;;4.50;99.90;;;4.39;63.47;96694.97;5072117;28;20450;-63
2024/01/29 06:52:03;;;;;;;22.37;12.60;;;4.60;99.90;;;4.43;63.34;96697.41;5071512;28;20482;-57
2024/01/29 06:54:31;;;;;;;22.17;13.53;;;4.60;99.90;;;4.48;63.32;96699.84;5071525;28;20451;-58
2024/01/29 06:56:59;;;;;;;26.80;12.50;;;4.60;99.90;;;4.52;63.34;96701.41;5070194;28;20482;-57
2024/01/29 06:59:28;;;;;;;18.83;11.87;;;4.70;99.90;;;4.57;63.49;96696.88;5071591;28;20454;-63
2024/01/29 07:01:59;;;;;;;21.50;13.23;;;4.70;99.90;;;4.61;62.96;96693.25;5071360;28;20463;-63
2024/01/29 07:04:26;;;;;;;38.20;12.40;;;4.80;99.90;;;4.64;62.70;96693.13;5070552;28;20501;-61
2024/01/29 07:06:55;;;;;;;20.23;12.67;;;4.80;99.70;;;4.69;62.75;96702.53;5071616;28;20478;-63
2024/01/29 07:09:22;;;;;;;33.00;17.87;;;4.90;99.70;;;4.74;62.58;96700.59;5071582;28;20517;-58
2024/01/29 07:11:49;;;;;;;53.67;23.87;;;4.90;99.60;;;4.75;63.02;96700.53;5071429;28;20463;-58
2024/01/29 07:14:17;;;;;;;37.70;21.67;;;4.90;99.70;;;4.76;62.68;96698.78;5071477;28;20458;-62
2024/01/29 07:16:46;;;;;;;41.77;20.50;;;4.90;99.50;;;4.78;63.04;96702.19;5070889;28;20479;-57
2024/01/29 07:19:14;;;;;;;35.43;16.73;;;5.00;99.70;;;4.82;65.28;96699.41;5071056;28;20491;-63
2024/01/29 07:21:41;;;;;;;38.23;21.80;;;5.00;99.90;;;4.91;63.67;96711.25;5070895;28;20467;-58
2024/01/29 07:24:09;;;;;;;31.33;16.60;;;5.10;99.90;;;4.94;63.72;96692.88;5070911;28;20533;-58
2024/01/29 07:26:36;;;;;;;24.67;13.20;;;5.10;99.90;;;4.96;63.34;96698.03;5070955;28;20482;-63
2024/01/29 07:29:03;;;;;;;27.63;12.93;;;5.10;99.90;;;4.96;62.92;96706.69;5070939;28;20477;-63
2024/01/29 07:31:31;;;;;;;19.23;12.10;;;5.10;99.80;;;4.96;62.96;96696.25;5070444;28;20471;-63
2024/01/29 07:33:59;;;;;;;21.67;12.20;;;5.20;99.90;;;4.98;63.14;96699.63;5069535;28;20451;-63
2024/01/29 07:36:27;;;;;;;18.93;9.90;;;5.10;99.80;;;4.99;62.74;96696.13;5070915;28;20528;-58
2024/01/29 07:38:54;;;;;;;18.90;10.07;;;5.20;99.90;;;5.01;62.84;96694.31;5070744;28;20594;-58
2024/01/29 07:41:22;;;;;;;16.57;11.13;;;5.20;99.60;;;5.02;62.52;96693.41;5070712;28;20482;-57
2024/01/29 07:43:50;;;;;;;25.27;10.30;;;5.20;99.50;;;5.05;62.35;96707.22;5070855;28;20524;-63
2024/01/29 07:46:17;;;;;;;20.70;12.00;;;5.20;99.40;;;5.07;62.57;96702.81;5070710;28;20925;-64
2024/01/29 07:48:44;;;;;;;22.93;10.90;;;5.20;99.40;;;5.08;62.12;96701.88;5070635;28;20451;-63
2024/01/29 07:51:13;;;;;;;19.30;11.80;;;5.30;99.30;;;5.11;62.06;96701.75;5071731;28;20501;-58
2024/01/29 07:53:40;;;;;;;18.70;10.57;;;5.30;99.20;;;5.13;62.04;96705.19;5070540;28;20950;-63
2024/01/29 07:56:08;;;;;;;18.67;10.80;;;5.30;99.10;;;5.14;62.11;96697.28;5070501;28;20459;-56
2024/01/29 07:58:35;;;;;;;16.63;9.70;;;5.30;98.90;;;5.17;61.66;96709.34;5069958;28;20490;-63
2024/01/29 08:01:02;;;;;;;12.40;9.67;;;5.30;98.80;;;5.16;61.72;96708.50;5069495;28;20478;-58
2024/01/29 08:03:30;;;;;;;19.10;10.57;;;5.30;98.40;;;5.16;61.68;96707.66;5069263;28;20465;-56
2024/01/29 08:05:57;;;;;;;14.10;9.20;;;5.30;98.50;;;5.17;61.47;96709.34;5069873;28;21018;-64
2024/01/29 08:08:26;;;;;;;20.23;9.90;;;5.30;98.40;;;5.17;61.20;96714.56;5069765;28;20865;-57
2024/01/29 08:10:54;;;;;;;20.47;12.80;;;5.40;98.20;;;5.15;60.86;96721.59;5070219;28;20475;-63
2024/01/29 08:13:21;;;;;;;22.87;15.37;;;5.30;98.20;;;5.15;61.49;96716.41;5070373;28;20810;-58
2024/01/29 08:15:48;;;;;;;24.20;14.30;;;5.30;98.20;;;5.15;61.30;96721.59;5070130;28;20497;-63
2024/01/29 08:18:16;;;;;;;31.53;18.60;;;5.30;98.20;;;5.14;61.28;96726.00;5069925;28;20491;-58
2024/01/29 08:20:44;;;;;;;25.17;15.07;;;5.30;98.20;;;5.15;61.32;96724.22;5070054;28;20471;-62
2024/01/29 08:23:11;;;;;;;23.93;14.50;;;5.30;98.20;;;5.20;61.10;96727.47;5069767;28;20459;-57
2024/01/29 08:25:40;;;;;;;23.83;13.20;;;5.30;98.20;;;5.26;61.32;96723.78;5069796;28;20486;-65
2024/01/29 08:28:07;;;;;;;23.80;13.33;;;5.40;98.20;;;5.29;60.87;96728.88;5069454;28;20515;-58
2024/01/29 08:30:35;;;;;;;22.67;13.20;;;5.40;98.20;;;5.33;61.24;96730.44;5070054;28;20537;-59
2024/01/29 08:33:02;;;;;;;20.23;12.90;;;5.50;98.30;;;5.37;60.66;96727.66;5068309;28;20451;-63
2024/01/29 08:35:29;;;;;;;15.10;10.23;;;5.50;98.00;;;5.42;60.68;96739.66;5069766;28;20776;-64
2024/01/29 08:37:57;;;;;;;20.50;12.27;;;5.60;97.80;;;5.46;60.57;96736.03;5069636;28;20536;-60
2024/01/29 08:40:24;;;;;;;25.83;12.37;;;5.60;97.80;;;5.52;60.61;96741.84;5069593;28;20494;-64
2024/01/29 08:42:53;;;;;;;17.00;11.53;;;5.70;97.70;;;5.60;60.33;96741.53;5069689;28;20822;-55
2024/01/29 08:45:20;;;;;;;18.43;10.80;;;5.70;97.70;;;5.71;60.26;96741.94;5069719;28;20508;-57
2024/01/29 08:47:47;;;;;;;17.60;10.33;;;5.80;97.50;;;5.84;60.11;96746.63;5069501;28;20508;-59
2024/01/29 08:50:15;;;;;;;20.60;11.17;;;5.90;97.50;;;6.00;59.61;96747.72;5069865;28;20497;-63
2024/01/29 08:52:42;;;;;;;17.43;9.93;;;6.10;97.50;;;6.17;59.75;96738.34;5069070;28;21046;-57
2024/01/29 08:55:11;;;;;;;14.73;10.00;;;6.30;97.20;;;6.64;59.38;96748.44;5069622;28;20455;-57
2024/01/29 08:57:38;;;;;;;13.00;10.23;;;6.60;97.50;;;7.31;58.96;96741.00;5069465;28;20568;-57
2024/01/29 09:00:08;;;;;;;14.33;9.50;;;7.10;97.20;;;7.82;57.74;96742.00;5069327;28;21039;-64
2024/01/29 09:02:37;;;;;;;13.77;9.53;;;7.60;96.40;;;8.09;56.42;96741.53;5068811;28;20812;-65
2024/01/29 09:05:05;;;;;;;15.47;9.67;;;7.90;95.00;;;8.20;56.19;96739.19;5069322;28;20828;-58
2024/01/29 09:07:32;;;;;;;16.20;9.80;;;8.20;94.40;;;8.24;55.31;96739.88;5069197;28;20443;-64
2024/01/29 09:10:00;;;;;;;16.10;10.27;;;8.30;93.70;;;8.21;55.44;96742.66;5069344;28;20454;-59
2024/01/29 09:12:27;;;;;;;22.70;10.57;;;8.30;93.20;;;8.15;55.49;96743.84;5069228;28;20882;-60
2024/01/29 09:14:54;;;;;;;18.37;10.67;;;8.30;93.10;;;8.05;54.83;96737.34;5069008;28;20562;-58
2024/01/29 09:17:23;;;;;;;14.83;10.40;;;8.20;92.40;;;7.92;54.48;96744.13;5069198;28;21005;-58
2024/01/29 09:19:51;;;;;;;18.77;10.07;;;8.10;91.80;;;7.77;53.99;96746.59;5068403;28;20584;-62
2024/01/29 09:22:19;;;;;;;13.47;9.53;;;7.90;91.40;;;7.60;54.38;96750.06;5069364;28;20459;-58
2024/01/29 09:24:46;;;;;;;11.67;8.87;;;7.80;91.60;;;7.45;54.92;96741.19;5069020;28;20450;-56
2024/01/29 09:27:14;;;;;;;13.10;8.50;;;7.70;92.20;;;7.33;55.36;96752.25;5069314;28;20507;-58
2024/01/29 09:29:41;;;;;;;13.53;8.60;;;7.50;92.10;;;7.25;55.72;96749.13;5068855;28;20538;-58
2024/01/29 09:32:09;;;;;;;19.10;9.40;;;7.40;92.40;;;7.14;55.10;96742.66;5068256;28;20549;-64
2024/01/29 09:34:37;;;;;;;16.53;8.83;;;7.30;92.00;;;7.06;55.33;96750.00;5068004;28;20974;-63
2024/01/29 09:37:05;;;;;;;14.10;8.23;;;7.20;92.30;;;6.93;54.94;96748.88;5068860;28;20589;-57
2024/01/29 09:39:32;;;;;;;12.57;8.53;;;7.10;91.90;;;6.84;55.22;96749.31;5069063;28;20517;-64
2024/01/29 09:42:03;;;;;;;13.73;8.43;;;7.00;91.80;;;6.75;55.67;96740.94;5068839;28;21120;-58
2024/01/29 09:44:36;;;;;;;10.57;7.73;;;6.90;92.10;;;6.69;54.88;96743.84;5068954;28;20473;-58
2024/01/29 09:47:04;;;;;;;10.87;8.93;;;6.80;91.80;;;6.59;55.22;96740.81;5069174;28;20532;-63
2024/01/29 09:49:32;;;;;;;15.17;9.60;;;6.80;91.90;;;6.49;55.22;96739.53;5069067;28;20455;-59
2024/01/29 09:52:00;;;;;;;14.77;9.70;;;6.70;92.10;;;6.42;56.02;96731.09;5069027;28;20478;-57
2024/01/29 09:54:28;;;;;;;14.40;9.40;;;6.60;92.30;;;6.36;55.31;96728.75;5068803;28;20508;-64
2024/01/29 09:56:55;;;;;;;11.70;7.97;;;6.50;92.20;;;6.32;55.62;96722.00;5069200;28;20492;-57
2024/01/29 09:59:23;;;;;;;16.20;8.70;;;6.50;92.40;;;6.31;55.63;96730.72;5068783;28;20498;-58
2024/01/29 10:01:50;;;;;;;9.37;7.10;;;6.50;92.30;;;6.30;55.97;96728.19;5071154;28;20528;-64
2024/01/29 10:04:18;;;;;;;11.30;7.93;;;6.40;92.10;;;6.30;55.44;96720.34;5067943;28;20950;-59
2024/01/29 10:06:45;;;;;;;10.97;7.03;;;6.50;92.40;;;6.32;55.87;96726.34;5068690;28;21003;-57
2024/01/29 10:09:15;;;;;;;15.30;8.13;;;6.50;92.20;;;6.37;55.38;96724.41;5069139;28;20560;-58
2024/01/29 10:11:42;;;;;;;8.17;5.67;;;6.50;91.90;;;6.37;54.73;96720.00;5068709;28;20501;-58
2024/01/29 10:14:10;;;;;;;9.27;7.53;;;6.50;91.20;;;6.39;53.87;96725.16;5068451;28;20443;-58
2024/01/29 10:16:37;;;;;;;18.97;8.03;;;6.50;90.70;;;6.39;53.66;96722.56;5068586;28;20479;-63
2024/01/29 10:19:05;;;;;;;23.50;8.40;;;6.50;90.50;;;6.40;54.75;96725.09;5068945;28;20494;-64
2024/01/29 10:21:38;;;;;;;8.77;7.10;;;6.50;91.00;;;6.43;54.21;96726.75;5068814;28;20865;-59
2024/01/29 10:24:06;;;;;;;7.97;5.90;;;6.60;90.70;;;6.43;53.42;96708.44;5069043;28;20447;-59
2024/01/29 10:26:35;;;;;;;6.63;5.93;;;6.60;90.40;;;6.43;53.43;96709.28;5067802;28;20471;-63